Time;durP1;ratioP1;P1;durP2;ratioP2;P2;SDS_P1;SDS_P2;PMS_P1;PMS_P2;Temp;Humidity;BMP_temperature;BMP_pressure;BME280_temperature;BME280_humidity;BME280_pressure;Samples;Min_cycle;Max_cycle;Signal;HPM_P1;HPM_P2
2024/01/21 16:17:00;;;;;;;18.77;8.38;;;3.70;99.90;;;;;;5116786;27;20490;-86
2024/01/21 16:19:26;;;;;;;14.48;8.38;;;4.20;99.90;;;;;;5101153;27;20047;-85
2024/01/21 16:21:53;;;;;;;12.80;7.70;;;3.90;99.90;;;;;;5094312;28;20096;-84
2024/01/21 16:24:19;;;;;;;14.30;7.70;;;3.60;99.90;;;;;;4737632;27;10000963;-86
2024/01/21 16:26:45;;;;;;;15.57;10.45;;;4.00;99.90;;;;;;5106104;27;20043;-83
2024/01/21 16:29:11;;;;;;;17.10;8.70;;;3.70;99.90;;;;;;5116524;27;20044;-81
2024/01/21 16:31:37;;;;;;;18.00;8.55;;;3.70;99.90;;;;;;5094044;28;20415;-85
2024/01/21 16:34:03;;;;;;;21.17;9.38;;;3.70;99.90;;;;;;5119574;27;20363;-85
2024/01/21 16:36:32;;;;;;;17.30;7.18;;;3.60;99.90;;;;;;5098847;28;20044;-82
2024/01/21 16:39:02;;;;;;;18.10;7.63;;;4.40;99.90;;;;;;5095328;28;20139;-81
2024/01/21 16:41:28;;;;;;;14.02;7.63;;;3.70;99.90;;;;;;5092372;28;20093;-86
2024/01/21 16:43:55;;;;;;;18.63;8.90;;;3.70;99.90;;;;;;5112377;27;20043;-84
2024/01/21 16:46:21;;;;;;;15.73;9.27;;;3.80;99.90;;;;;;5086185;28;20054;-88
2024/01/21 16:48:47;;;;;;;16.67;8.30;;;3.70;99.90;;;;;;5091627;27;20039;-82
2024/01/21 16:51:15;;;;;;;16.08;8.65;;;3.80;99.90;;;;;;5086902;28;20047;-86
2024/01/21 16:53:41;;;;;;;15.80;7.65;;;3.70;99.90;;;;;;5087016;27;20035;-83
2024/01/21 16:56:07;;;;;;;25.83;10.55;;;3.70;99.90;;;;;;5091540;27;20090;-85
2024/01/21 16:58:33;;;;;;;13.77;7.50;;;3.80;99.90;;;;;;5088747;28;20045;-87
2024/01/21 17:01:00;;;;;;;16.48;8.43;;;3.80;99.90;;;;;;5083828;27;20043;-83
2024/01/21 17:03:28;;;;;;;18.48;10.10;;;3.80;99.90;;;;;;5088986;27;20047;-85
2024/01/21 17:05:54;;;;;;;17.10;8.80;;;3.80;99.90;;;;;;5106381;27;20415;-87
2024/01/21 17:08:25;;;;;;;16.55;8.85;;;3.90;99.90;;;;;;5099039;28;20047;-85
2024/01/21 17:11:04;;;;;;;19.38;8.68;;;5.50;99.90;;;;;;5117849;27;20089;-84
2024/01/21 17:13:30;;;;;;;18.50;9.85;;;3.80;99.90;;;;;;5095559;28;20036;-83
2024/01/21 17:15:56;;;;;;;27.67;10.18;;;3.90;99.90;;;;;;5095311;28;20055;-84
2024/01/21 17:18:22;;;;;;;18.80;10.15;;;4.00;99.90;;;;;;5093508;28;20047;-84
2024/01/21 17:20:51;;;;;;;21.13;11.27;;;2.10;99.90;;;;;;5108877;27;20039;-85
2024/01/21 17:23:17;;;;;;;17.17;9.60;;;3.70;99.90;;;;;;5107996;28;20042;-82
2024/01/21 17:25:46;;;;;;;22.65;10.25;;;3.90;99.90;;;;;;5085980;27;20047;-80
2024/01/21 17:28:12;;;;;;;22.98;10.23;;;4.30;99.90;;;;;;5077629;28;20488;-84
2024/01/21 17:30:38;;;;;;;21.63;10.50;;;3.80;99.90;;;;;;5073856;28;20048;-81
2024/01/21 17:33:04;;;;;;;21.67;11.15;;;3.80;99.90;;;;;;5075319;28;20042;-85
2024/01/21 17:35:30;;;;;;;25.70;10.85;;;4.10;99.90;;;;;;5096427;27;20046;-86
2024/01/21 17:37:57;;;;;;;20.23;10.02;;;3.80;99.90;;;;;;5093138;27;20132;-81
2024/01/21 17:40:26;;;;;;;25.42;9.82;;;3.90;99.90;;;;;;5073642;28;20146;-85
2024/01/21 17:42:51;;;;;;;22.02;10.20;;;4.30;99.90;;;;;;5078009;28;20123;-83
2024/01/21 17:45:17;;;;;;;22.08;10.75;;;3.90;99.90;;;;;;5075536;28;20434;-87
2024/01/21 17:47:44;;;;;;;25.20;10.00;;;3.90;99.90;;;;;;5071355;28;20114;-83
2024/01/21 17:50:10;;;;;;;15.85;9.75;;;3.90;99.90;;;;;;5082188;27;20237;-85
2024/01/21 17:52:36;;;;;;;18.98;10.10;;;3.90;99.90;;;;;;5078646;28;20060;-85
2024/01/21 17:55:02;;;;;;;21.58;10.48;;;3.90;99.90;;;;;;5082866;28;20132;-83
2024/01/21 17:57:35;;;;;;;19.70;10.10;;;3.90;99.90;;;;;;5089743;28;20040;-84
2024/01/21 18:00:02;;;;;;;20.38;9.70;;;4.00;99.90;;;;;;5076972;28;20054;-84
2024/01/21 18:02:31;;;;;;;20.58;10.13;;;4.00;99.90;;;;;;5078975;28;20064;-83
2024/01/21 18:05:02;;;;;;;17.73;8.38;;;4.00;99.90;;;;;;5073528;28;20130;-85
2024/01/21 18:07:38;;;;;;;16.65;10.18;;;3.90;99.90;;;;;;5090582;27;20043;-82
2024/01/21 18:10:04;;;;;;;22.05;9.35;;;3.40;99.90;;;;;;5089544;27;20046;-85
2024/01/21 18:12:37;;;;;;;20.30;9.73;;;3.70;99.90;;;;;;5090991;27;20040;-82
2024/01/21 18:15:07;;;;;;;18.88;8.52;;;4.00;99.90;;;;;;5095132;28;20060;-81
2024/01/21 18:17:33;;;;;;;20.35;9.57;;;3.90;99.90;;;;;;5096905;27;20908;-85
2024/01/21 18:20:01;;;;;;;20.05;10.30;;;3.90;99.90;;;;;;5091274;27;20044;-86
2024/01/21 18:22:29;;;;;;;18.35;10.38;;;4.00;99.90;;;;;;5083652;28;20043;-83
2024/01/21 18:25:04;;;;;;;19.88;9.25;;;3.80;99.90;;;;;;5083252;28;20080;-81
2024/01/21 18:27:34;;;;;;;17.60;9.35;;;6.40;99.90;;;;;;5099107;27;20116;-82
2024/01/21 18:30:00;;;;;;;17.13;9.52;;;3.80;99.90;;;;;;5073299;28;20040;-87
2024/01/21 18:32:27;;;;;;;22.63;10.07;;;3.80;99.90;;;;;;5084573;28;20056;-86
2024/01/21 18:34:54;;;;;;;16.38;8.95;;;3.70;99.90;;;;;;5087509;27;20105;-82
2024/01/21 18:37:20;;;;;;;17.52;9.82;;;1.80;99.90;;;;;;5098523;27;20050;-81
2024/01/21 18:39:46;;;;;;;18.63;9.75;;;4.70;99.90;;;;;;5072327;28;20040;-85
2024/01/21 18:42:13;;;;;;;24.48;10.43;;;4.30;99.90;;;;;;5081875;28;20047;-84
2024/01/21 18:44:38;;;;;;;23.02;10.43;;;3.80;99.90;;;;;;5101332;27;20082;-82
2024/01/21 18:47:04;;;;;;;22.67;10.73;;;1.40;99.90;;;;;;5084920;28;20158;-85
2024/01/21 18:49:30;;;;;;;21.88;10.93;;;2.70;99.90;;;;;;5069553;28;20119;-85
2024/01/21 18:51:59;;;;;;;18.30;10.40;;;3.80;99.90;;;;;;5084001;27;20157;-89
2024/01/21 18:54:26;;;;;;;19.75;10.18;;;3.90;99.90;;;;;;5076855;28;20079;-85
2024/01/21 18:56:52;;;;;;;16.92;9.85;;;3.80;99.90;;;;;;5078445;28;20474;-86
2024/01/21 18:59:17;;;;;;;17.70;10.65;;;3.80;99.90;;;;;;5075288;28;20046;-86
2024/01/21 19:01:43;;;;;;;19.90;10.52;;;4.00;99.90;;;;;;5077367;28;20265;-89
2024/01/21 19:04:09;;;;;;;19.38;9.57;;;2.20;99.90;;;;;;5078441;28;20128;-83
2024/01/21 19:06:35;;;;;;;19.52;11.35;;;3.80;99.90;;;;;;5106152;27;20085;-84
2024/01/21 19:09:01;;;;;;;18.58;10.68;;;3.70;99.90;;;;;;5080607;28;20043;-82
2024/01/21 19:11:27;;;;;;;20.77;11.00;;;3.60;99.90;;;;;;5071504;28;20040;-84
2024/01/21 19:13:53;;;;;;;20.77;10.57;;;4.00;99.90;;;;;;5098864;27;20047;-82
2024/01/21 19:16:19;;;;;;;21.15;10.48;;;4.40;99.90;;;;;;5078446;28;20495;-83
2024/01/21 19:18:45;;;;;;;18.70;10.02;;;3.90;99.90;;;;;;5075166;28;20039;-84
2024/01/21 19:21:11;;;;;;;19.48;10.40;;;3.80;99.90;;;;;;5101634;27;20035;-83
2024/01/21 19:23:37;;;;;;;23.70;12.02;;;3.60;99.90;;;;;;5071808;28;20035;-85
2024/01/21 19:26:05;;;;;;;21.20;10.90;;;5.60;99.90;;;;;;5080029;28;20036;-82
2024/01/21 19:28:31;;;;;;;25.60;11.07;;;3.60;99.90;;;;;;5067563;28;20104;-84
2024/01/21 19:30:57;;;;;;;27.13;12.18;;;3.60;99.90;;;;;;5076786;28;20067;-84
2024/01/21 19:33:23;;;;;;;22.45;11.07;;;3.70;99.90;;;;;;5076058;27;20124;-82
2024/01/21 19:35:48;;;;;;;22.50;10.27;;;3.60;99.90;;;;;;5079214;28;20044;-88
2024/01/21 19:38:17;;;;;;;22.88;10.30;;;3.60;99.90;;;;;;5080926;28;20189;-83
2024/01/21 19:40:43;;;;;;;20.00;10.80;;;0.70;99.90;;;;;;5078558;28;20035;-81
2024/01/21 19:43:09;;;;;;;21.80;10.00;;;3.50;99.90;;;;;;5073481;28;20055;-86
2024/01/21 19:45:35;;;;;;;21.75;11.57;;;3.40;99.90;;;;;;5072467;28;20040;-87
2024/01/21 19:48:01;;;;;;;19.58;10.05;;;3.40;99.90;;;;;;5090667;27;20047;-82
2024/01/21 19:50:27;;;;;;;22.23;10.10;;;3.40;99.90;;;;;;5082494;28;20622;-83
2024/01/21 19:52:53;;;;;;;20.02;9.68;;;3.40;99.90;;;;;;5076348;27;20052;-84
2024/01/21 19:55:19;;;;;;;18.73;9.45;;;3.40;99.90;;;;;;5081645;28;20121;-86
2024/01/21 19:57:45;;;;;;;17.20;8.70;;;1.60;99.90;;;;;;5073261;28;20032;-85
2024/01/21 20:00:14;;;;;;;16.80;8.77;;;1.50;99.90;;;;;;5073552;28;20065;-87
2024/01/21 20:02:40;;;;;;;17.95;9.35;;;3.70;99.90;;;;;;5072629;28;20580;-83
2024/01/21 20:05:09;;;;;;;20.40;10.38;;;2.50;99.90;;;;;;5070468;28;20175;-84
2024/01/21 20:07:35;;;;;;;17.27;9.38;;;3.50;99.90;;;;;;5079039;28;20040;-85
2024/01/21 20:10:03;;;;;;;18.58;10.02;;;3.80;99.90;;;;;;5079706;28;20044;-83
2024/01/21 20:12:32;;;;;;;20.63;9.43;;;3.30;99.90;;;;;;5076607;28;20128;-86
2024/01/21 20:14:58;;;;;;;21.33;8.93;;;4.20;99.90;;;;;;5076832;28;20071;-85
2024/01/21 20:17:24;;;;;;;17.70;8.80;;;5.20;99.90;;;;;;5073203;28;20063;-85
2024/01/21 20:19:50;;;;;;;20.25;9.18;;;3.60;99.90;;;;;;5076275;28;20039;-86
2024/01/21 20:22:16;;;;;;;13.18;8.50;;;3.90;99.90;;;;;;5072734;28;20700;-89
2024/01/21 20:24:42;;;;;;;22.83;8.73;;;3.80;99.90;;;;;;5073300;28;20126;-84
2024/01/21 20:27:08;;;;;;;13.80;8.50;;;4.10;99.90;;;;;;5077679;28;20039;-86
2024/01/21 20:29:35;;;;;;;15.63;8.75;;;4.00;99.90;;;;;;5097047;28;20031;-86
2024/01/21 20:32:01;;;;;;;22.00;10.15;;;6.80;99.90;;;;;;5072127;28;20077;-85
2024/01/21 20:34:27;;;;;;;15.18;8.35;;;3.70;99.90;;;;;;5068835;28;20044;-89
2024/01/21 20:36:53;;;;;;;21.48;8.38;;;3.60;99.90;;;;;;5090794;28;20039;-83
2024/01/21 20:39:21;;;;;;;21.98;9.45;;;3.70;99.90;;;;;;5086809;28;20073;-85
2024/01/21 20:41:47;;;;;;;16.80;7.93;;;3.70;99.90;;;;;;5068935;28;20055;-84
2024/01/21 20:44:13;;;;;;;17.15;9.40;;;3.70;99.90;;;;;;5087763;28;20040;-85
2024/01/21 20:46:39;;;;;;;15.30;7.05;;;3.70;99.90;;;;;;5097866;28;20055;-83
2024/01/21 20:49:05;;;;;;;16.05;8.05;;;3.80;99.90;;;;;;5074703;28;20040;-83
2024/01/21 20:51:30;;;;;;;22.38;9.13;;;3.90;99.90;;;;;;5077819;28;20502;-83
2024/01/21 20:53:59;;;;;;;15.25;7.60;;;3.90;99.90;;;;;;5069514;28;20062;-85
2024/01/21 20:56:25;;;;;;;13.60;7.03;;;4.00;99.90;;;;;;5071771;28;20119;-84
2024/01/21 20:58:52;;;;;;;15.50;6.68;;;4.00;99.90;;;;;;5064242;28;20044;-83
2024/01/21 21:01:18;;;;;;;17.35;7.95;;;4.10;99.90;;;;;;5074775;28;20075;-85
2024/01/21 21:03:44;;;;;;;13.65;6.55;;;4.10;99.90;;;;;;5091498;28;20120;-83
2024/01/21 21:06:10;;;;;;;14.25;6.57;;;5.00;99.90;;;;;;5078178;27;20579;-85
2024/01/21 21:08:39;;;;;;;20.83;8.23;;;4.60;99.90;;;;;;5075660;28;20040;-84
2024/01/21 21:11:08;;;;;;;16.73;6.90;;;4.30;99.90;;;;;;5089913;27;20617;-85
2024/01/21 21:13:36;;;;;;;14.88;7.30;;;4.00;99.90;;;;;;5070667;28;20555;-84
2024/01/21 21:16:02;;;;;;;16.20;7.28;;;4.30;99.90;;;;;;5084655;27;20075;-87
2024/01/21 21:18:35;;;;;;;17.88;6.88;;;4.70;99.90;;;;;;5095534;28;20315;-84
2024/01/21 21:21:02;;;;;;;13.90;7.50;;;4.40;99.90;;;;;;5080603;27;20078;-86
2024/01/21 21:23:28;;;;;;;15.77;7.20;;;5.30;99.90;;;;;;5093520;28;20776;-80
2024/01/21 21:25:57;;;;;;;17.95;7.30;;;4.40;99.90;;;;;;5078548;27;20090;-85
2024/01/21 21:28:23;;;;;;;15.18;6.30;;;2.50;99.90;;;;;;5078943;28;20036;-86
2024/01/21 21:30:49;;;;;;;14.05;6.03;;;4.80;99.90;;;;;;5089631;28;20051;-86
2024/01/21 21:33:15;;;;;;;12.80;6.60;;;5.60;99.90;;;;;;5096556;28;20607;-85
2024/01/21 21:35:43;;;;;;;14.15;6.97;;;4.50;99.90;;;;;;5083525;28;20055;-84
2024/01/21 21:38:09;;;;;;;13.00;7.03;;;3.70;99.90;;;;;;5078777;28;20152;-81
2024/01/21 21:40:35;;;;;;;15.25;7.13;;;4.60;99.90;;;;;;5078032;28;20043;-85
2024/01/21 21:43:04;;;;;;;16.45;7.07;;;4.60;99.90;;;;;;5080377;28;20152;-82
2024/01/21 21:45:32;;;;;;;15.75;6.50;;;4.60;99.90;;;;;;5079335;28;20051;-84
2024/01/21 21:47:58;;;;;;;17.77;6.35;;;4.60;99.90;;;;;;5070176;28;20095;-86
2024/01/21 21:50:25;;;;;;;15.15;6.72;;;4.60;99.90;;;;;;5089620;27;20044;-84
2024/01/21 21:52:51;;;;;;;15.63;6.97;;;4.60;99.90;;;;;;5068403;28;20051;-84
2024/01/21 21:55:17;;;;;;;15.55;7.30;;;5.10;99.90;;;;;;5085817;28;20039;-88
2024/01/21 21:57:43;;;;;;;12.50;5.63;;;4.70;99.90;;;;;;5074597;28;20097;-84
2024/01/21 22:00:12;;;;;;;13.57;6.80;;;5.50;99.90;;;;;;5080093;28;20043;-86
2024/01/21 22:02:41;;;;;;;11.43;5.97;;;4.70;99.90;;;;;;5081721;28;20101;-87
2024/01/21 22:05:07;;;;;;;10.10;5.90;;;4.90;99.90;;;;;;5084901;28;20039;-84
2024/01/21 22:07:33;;;;;;;12.80;6.50;;;4.90;99.90;;;;;;5069812;27;20129;-87
2024/01/21 22:10:05;;;;;;;14.85;6.93;;;4.70;99.90;;;;;;5076171;28;20427;-84
2024/01/21 22:12:40;;;;;;;14.45;6.53;;;7.10;99.90;;;;;;5080527;27;20044;-84
2024/01/21 22:15:06;;;;;;;15.57;5.82;;;4.70;99.90;;;;;;5077218;28;20083;-81
2024/01/21 22:17:32;;;;;;;14.95;7.13;;;4.70;99.90;;;;;;5072830;27;20050;-84
2024/01/21 22:20:00;;;;;;;18.67;7.63;;;4.80;99.90;;;;;;5071971;28;20680;-85
2024/01/21 22:22:26;;;;;;;18.75;7.38;;;5.00;99.90;;;;;;5079355;28;20040;-85
2024/01/21 22:24:52;;;;;;;13.73;6.90;;;2.50;99.90;;;;;;5079223;28;20066;-87
2024/01/21 22:27:19;;;;;;;20.33;6.82;;;4.80;99.90;;;;;;5101380;27;20039;-85
2024/01/21 22:29:45;;;;;;;17.90;7.60;;;5.10;99.90;;;;;;5093006;27;20406;-86
2024/01/21 22:32:13;;;;;;;13.60;7.15;;;4.90;99.90;;;;;;5083255;27;20104;-84
2024/01/21 22:34:39;;;;;;;14.25;7.90;;;4.80;99.90;;;;;;5074518;28;20100;-83
2024/01/21 22:37:05;;;;;;;15.73;7.82;;;5.60;99.90;;;;;;5080604;28;20042;-84
2024/01/21 22:39:31;;;;;;;11.27;6.88;;;4.70;99.90;;;;;;5072647;28;20050;-86
2024/01/21 22:41:57;;;;;;;17.77;7.38;;;4.70;99.90;;;;;;5072123;28;20043;-86
2024/01/21 22:44:23;;;;;;;23.42;9.10;;;5.50;99.90;;;;;;5073289;28;20655;-84
2024/01/21 22:46:52;;;;;;;14.20;7.53;;;4.70;99.90;;;;;;5080835;28;20054;-83
2024/01/21 22:49:18;;;;;;;13.52;6.68;;;4.70;99.90;;;;;;5080701;28;20043;-85
2024/01/21 22:51:44;;;;;;;12.70;7.00;;;4.80;99.90;;;;;;5095028;27;20043;-89
2024/01/21 22:54:10;;;;;;;24.80;8.90;;;4.90;99.90;;;;;;5099492;28;20071;-84
2024/01/21 22:56:36;;;;;;;14.43;6.88;;;5.40;99.90;;;;;;5078317;28;20747;-85
2024/01/21 22:59:01;;;;;;;14.88;6.55;;;4.80;99.90;;;;;;5066149;28;20047;-82
2024/01/21 23:01:27;;;;;;;13.57;6.45;;;5.10;99.90;;;;;;5075300;27;20035;-85
2024/01/21 23:03:54;;;;;;;11.98;5.53;;;4.90;99.90;;;;;;5086813;28;20150;-86
2024/01/21 23:06:20;;;;;;;17.83;5.78;;;6.90;99.90;;;;;;5079168;28;20043;-82
2024/01/21 23:08:46;;;;;;;11.20;5.93;;;4.90;99.90;;;;;;5073799;28;20489;-85
2024/01/21 23:11:12;;;;;;;16.52;7.63;;;5.00;99.90;;;;;;5091898;27;20050;-83
2024/01/21 23:13:38;;;;;;;14.52;7.97;;;5.00;99.90;;;;;;5086543;28;20088;-84
2024/01/21 23:16:04;;;;;;;10.18;5.55;;;2.30;99.90;;;;;;5095062;27;20062;-84
2024/01/21 23:18:32;;;;;;;14.18;6.22;;;5.40;99.90;;;;;;5070313;28;20048;-85
2024/01/21 23:20:58;;;;;;;11.65;5.85;;;5.10;99.90;;;;;;5082271;28;20043;-86
2024/01/21 23:23:24;;;;;;;17.63;5.47;;;5.10;99.90;;;;;;5091999;28;20039;-85
2024/01/21 23:25:51;;;;;;;12.85;5.10;;;5.80;99.90;;;;;;5089116;27;20047;-84
2024/01/21 23:28:17;;;;;;;13.27;6.28;;;5.50;99.90;;;;;;5087287;28;20046;-84
2024/01/21 23:30:45;;;;;;;14.57;5.50;;;5.60;99.90;;;;;;5084449;27;20050;-86
2024/01/21 23:33:17;;;;;;;10.23;5.57;;;5.30;99.90;;;;;;5073583;28;20071;-83
2024/01/21 23:35:43;;;;;;;11.57;5.30;;;6.00;99.90;;;;;;5083479;28;20039;-85
2024/01/21 23:38:09;;;;;;;11.73;5.45;;;5.60;99.90;;;;;;5075341;28;20039;-83
2024/01/21 23:40:35;;;;;;;13.40;5.25;;;5.80;99.90;;;;;;5075936;28;20064;-86
2024/01/21 23:43:01;;;;;;;12.70;4.50;;;5.40;99.90;;;;;;5070036;28;20040;-84
2024/01/21 23:45:27;;;;;;;12.23;5.32;;;5.70;99.90;;;;;;5077653;28;20039;-81
2024/01/21 23:47:53;;;;;;;12.52;4.93;;;5.90;99.90;;;;;;5078095;28;20045;-83
2024/01/21 23:50:19;;;;;;;14.18;5.57;;;5.70;99.90;;;;;;5076308;28;20046;-82
2024/01/21 23:52:44;;;;;;;12.10;5.97;;;5.10;99.90;;;;;;5092656;27;20047;-83
2024/01/21 23:55:16;;;;;;;8.38;4.35;;;5.50;99.90;;;;;;5092846;28;20130;-83
2024/01/21 23:57:42;;;;;;;9.02;4.63;;;7.10;99.90;;;;;;5076008;28;20073;-87
